Time;durP1;ratioP1;P1;durP2;ratioP2;P2;SDS_P1;SDS_P2;PMS_P1;PMS_P2;Temp;Humidity;BMP_temperature;BMP_pressure;BME280_temperature;BME280_humidity;BME280_pressure;Samples;Min_cycle;Max_cycle;Signal;HPM_P1;HPM_P2
2022/08/09 00:00:45;;;;;;;;;9.00;8.50;;;;;24.78;38.96;101777.03;2104974;27;47937;-64
2022/08/09 00:01:48;;;;;;;;;4.25;4.25;;;;;24.78;38.60;101777.03;2112471;27;47052;-64
2022/08/09 00:02:48;;;;;;;;;7.60;7.00;;;;;24.77;38.88;101783.41;2113037;27;47234;-64
2022/08/09 00:03:49;;;;;;;;;8.00;8.00;;;;;24.76;38.97;101773.50;2104635;27;46768;-64
2022/08/09 00:04:49;;;;;;;;;9.00;9.00;;;;;24.76;39.14;101782.53;2103428;28;47973;-64
2022/08/09 00:05:50;;;;;;;;;9.00;8.25;;;;;24.75;38.79;101780.78;2095708;28;47566;-64
2022/08/09 00:06:50;;;;;;;;;8.50;7.00;;;;;24.74;39.06;101779.03;2103975;28;45827;-64
2022/08/09 00:07:50;;;;;;;;;8.50;8.50;;;;;24.74;39.05;101779.03;2104857;28;48029;-64
2022/08/09 00:08:51;;;;;;;;;11.00;9.00;;;;;24.73;39.10;101784.56;2104900;27;47604;-64
2022/08/09 00:09:51;;;;;;;;;8.75;8.75;;;;;24.69;38.94;101781.19;2105040;27;47241;-63
2022/08/09 00:10:51;;;;;;;;;8.50;8.50;;;;;24.66;39.02;101781.41;2104865;27;47445;-64
2022/08/09 00:11:52;;;;;;;;;8.00;8.00;;;;;24.65;39.41;101782.38;2104683;27;48218;-64
2022/08/09 00:12:53;;;;;;;;;10.60;10.40;;;;;24.63;39.34;101782.44;2104772;27;47778;-64
2022/08/09 00:13:53;;;;;;;;;8.00;8.00;;;;;24.62;39.39;101778.00;2103479;28;47241;-63
2022/08/09 00:14:54;;;;;;;;;9.50;9.50;;;;;24.62;39.35;101780.69;2103960;28;47620;-63
2022/08/09 00:15:54;;;;;;;;;9.50;8.50;;;;;24.62;39.41;101783.41;2098989;28;47634;-66
2022/08/09 00:16:55;;;;;;;;;7.00;7.00;;;;;24.62;39.37;101787.97;2105141;27;47570;-64
2022/08/09 00:17:56;;;;;;;;;8.40;8.40;;;;;24.60;39.76;101788.06;2104905;27;47568;-65
2022/08/09 00:18:56;;;;;;;;;8.25;8.25;;;;;24.58;39.44;101784.59;2105168;27;47474;-64
2022/08/09 00:19:57;;;;;;;;;7.00;7.00;;;;;24.58;39.42;101787.31;2104843;27;47131;-64
2022/08/09 00:20:57;;;;;;;;;6.50;6.50;;;;;24.57;39.37;101787.41;2104840;27;47652;-67
2022/08/09 00:21:58;;;;;;;;;7.50;7.50;;;;;24.56;39.23;101789.25;2104930;27;47640;-64
2022/08/09 00:22:58;;;;;;;;;8.25;8.25;;;;;24.53;39.86;101773.16;2104900;27;47211;-65
2022/08/09 00:23:58;;;;;;;;;7.00;7.00;;;;;24.54;39.75;101782.19;2104366;27;47862;-64
2022/08/09 00:24:59;;;;;;;;;9.00;7.00;;;;;24.53;39.60;101775.88;2105047;27;48464;-63
2022/08/09 00:25:59;;;;;;;;;8.00;8.00;;;;;24.50;39.68;101776.03;2104623;27;47567;-65
2022/08/09 00:27:00;;;;;;;;;7.50;7.50;;;;;24.51;39.72;101777.78;2104950;27;47095;-64
2022/08/09 00:28:01;;;;;;;;;6.00;6.00;;;;;24.51;39.51;101776.91;2104384;28;47644;-63
2022/08/09 00:29:02;;;;;;;;;4.00;4.00;;;;;24.49;39.91;101777.03;2103691;28;47460;-62
2022/08/09 00:30:02;;;;;;;;;7.80;7.80;;;;;24.48;39.70;101780.72;2104849;28;47780;-64
2022/08/09 00:31:03;;;;;;;;;6.75;6.75;;;;;24.46;39.71;101779.94;2096051;28;47330;-64
2022/08/09 00:32:03;;;;;;;;;8.25;8.00;;;;;24.44;39.92;101779.16;2104321;28;48080;-66
2022/08/09 00:33:04;;;;;;;;;7.00;7.00;;;;;24.43;40.01;101776.56;2104732;27;47405;-64
2022/08/09 00:34:04;;;;;;;;;7.00;7.00;;;;;24.42;39.91;101772.09;2104515;27;47561;-64
2022/08/09 00:35:06;;;;;;;;;8.25;8.25;;;;;24.40;40.00;101765.91;2104913;27;47606;-63
2022/08/09 00:36:06;;;;;;;;;8.20;8.20;;;;;24.39;39.93;101766.84;2105229;27;47323;-64
2022/08/09 00:37:07;;;;;;;;;10.00;9.00;;;;;24.36;40.08;101760.66;2104619;27;47659;-64
2022/08/09 00:38:11;;;;;;;;;7.75;7.75;;;;;24.35;39.84;101764.31;2105164;27;47695;-65
2022/08/09 00:39:11;;;;;;;;;8.60;8.60;;;;;24.35;39.71;101768.88;2120315;27;47305;-65
2022/08/09 00:40:12;;;;;;;;;7.75;7.75;;;;;24.34;40.08;101764.44;2120599;27;47645;-63
2022/08/09 00:41:12;;;;;;;;;6.25;6.25;;;;;24.33;40.53;101758.13;2105132;27;47522;-63
2022/08/09 00:42:13;;;;;;;;;7.25;7.25;;;;;24.32;40.19;101769.09;2104630;27;47287;-63
2022/08/09 00:43:13;;;;;;;;;5.00;5.00;;;;;24.30;40.11;101758.31;2104703;27;47732;-64
2022/08/09 00:44:13;;;;;;;;;7.00;6.75;;;;;24.29;39.86;101769.25;2104097;28;47328;-64
2022/08/09 00:45:14;;;;;;;;;6.75;6.00;;;;;24.29;40.16;101769.25;2103754;28;46496;-64
2022/08/09 00:46:15;;;;;;;;;7.25;7.25;;;;;24.27;40.16;101763.91;2105002;27;47303;-63
2022/08/09 00:47:15;;;;;;;;;9.75;9.75;;;;;24.28;40.45;101762.09;2104476;27;47399;-64
2022/08/09 00:48:16;;;;;;;;;7.00;7.00;;;;;24.26;40.38;101766.69;2105230;27;44993;-64
2022/08/09 00:49:16;;;;;;;;;7.50;7.50;;;;;24.26;40.58;101764.00;2104480;27;48025;-63
2022/08/09 00:50:17;;;;;;;;;10.25;8.75;;;;;24.24;40.81;101769.50;2105098;27;47501;-65
2022/08/09 00:51:17;;;;;;;;;6.50;6.50;;;;;24.23;40.45;101769.63;2104878;27;46793;-65
2022/08/09 00:52:18;;;;;;;;;7.00;7.00;;;;;24.22;40.58;101773.28;2104406;27;47721;-63
2022/08/09 00:53:18;;;;;;;;;7.25;5.75;;;;;24.21;40.66;101775.13;2104764;27;47908;-64
2022/08/09 00:54:19;;;;;;;;;8.25;8.25;;;;;24.20;40.48;101773.41;2104807;27;47588;-66
2022/08/09 00:55:19;;;;;;;;;7.00;6.50;;;;;24.18;40.54;101772.63;2104877;27;47510;-64
2022/08/09 00:56:20;;;;;;;;;6.25;6.25;;;;;24.18;40.69;101777.19;2104580;27;47690;-63
2022/08/09 00:57:20;;;;;;;;;7.50;7.50;;;;;24.15;40.71;101770.09;2104747;28;47487;-64
2022/08/09 00:58:21;;;;;;;;;6.75;6.50;;;;;24.15;40.79;101775.53;2104469;27;47705;-65
2022/08/09 00:59:21;;;;;;;;;8.00;7.25;;;;;24.13;40.94;101774.72;2105427;27;47618;-64
2022/08/09 01:00:21;;;;;;;;;6.25;6.25;;;;;24.12;40.81;101780.25;2106249;27;47998;-64
2022/08/09 01:01:28;;;;;;;;;5.25;5.25;;;;;24.12;41.10;101769.41;2106091;27;47056;-64
2022/08/09 01:02:30;;;;;;;;;5.20;5.20;;;;;24.10;41.01;101769.50;2106035;27;47886;-64
2022/08/09 01:03:30;;;;;;;;;6.60;6.60;;;;;24.10;41.01;101771.34;2105827;27;47904;-63
2022/08/09 01:04:47;;;;;;;;;7.50;7.50;;;;;24.06;40.90;101774.25;2105779;27;48026;-63
2022/08/09 01:05:58;;;;;;;;;7.60;5.00;;;;;24.05;41.15;101783.34;2106032;27;47388;-65
2022/08/09 01:07:21;;;;;;;;;6.00;5.40;;;;;24.05;41.28;101779.78;2104869;28;47560;-65
2022/08/09 01:08:45;;;;;;;;;5.00;5.00;;;;;24.02;41.26;101778.13;2098300;28;47306;-64
2022/08/09 01:09:53;;;;;;;;;6.80;6.20;;;;;24.02;41.25;101779.97;2096844;28;47949;-63
2022/08/09 01:11:17;;;;;;;;;6.00;6.00;;;;;24.00;41.37;101777.31;2096705;28;47308;-64
2022/08/09 01:12:31;;;;;;;;;6.20;5.00;;;;;23.99;41.28;101769.28;2096843;28;47665;-63
2022/08/09 01:13:45;;;;;;;;;4.40;4.40;;;;;23.95;41.37;101779.44;2096477;28;47484;-64
2022/08/09 01:14:54;;;;;;;;;6.00;6.00;;;;;23.92;41.67;101774.22;2096375;28;47620;-64
2022/08/09 01:15:56;;;;;;;;;5.60;4.80;;;;;23.90;41.56;101770.75;2080199;28;48009;-63
2022/08/09 01:17:11;;;;;;;;;6.80;5.40;;;;;23.90;41.78;101773.44;2072881;28;47413;-65
2022/08/09 01:18:17;;;;;;;;;5.80;5.20;;;;;23.88;41.96;101766.34;2077939;28;47846;-63
2022/08/09 01:19:17;;;;;;;;;6.80;6.80;;;;;23.87;41.77;101765.47;2084460;28;47532;-63
2022/08/09 01:20:31;;;;;;;;;4.50;4.50;;;;;23.87;41.73;101770.03;2097273;28;45670;-64
2022/08/09 01:21:46;;;;;;;;;6.60;6.60;;;;;23.86;41.89;101768.28;2096869;28;48039;-64
2022/08/09 01:23:25;;;;;;;;;8.60;7.00;;;;;23.85;41.98;101766.53;2096535;28;47951;-62
2022/08/09 01:24:51;;;;;;;;;6.00;6.00;;;;;23.83;42.02;101774.78;2063390;28;47446;-66
2022/08/09 01:26:20;;;;;;;;;5.60;5.60;;;;;23.81;41.76;101776.72;2063544;28;47785;-63
2022/08/09 01:27:22;;;;;;;;;5.00;5.00;;;;;23.78;41.95;101763.34;2063585;28;47772;-64
2022/08/09 01:28:24;;;;;;;;;6.00;6.00;;;;;23.77;41.98;101773.31;2055443;28;47279;-63
2022/08/09 01:29:29;;;;;;;;;4.00;4.00;;;;;23.76;42.21;101762.56;2047150;28;47396;-64
2022/08/09 01:30:31;;;;;;;;;7.80;7.80;;;;;23.75;42.21;101766.22;2056325;28;47775;-64
2022/08/09 01:31:36;;;;;;;;;6.80;6.80;;;;;23.75;41.83;101763.50;2063324;28;48369;-65
2022/08/09 01:32:46;;;;;;;;;6.00;6.00;;;;;23.74;42.61;101765.34;2063429;28;48196;-63
2022/08/09 01:33:48;;;;;;;;;5.20;5.00;;;;;23.74;42.29;101773.47;2063715;28;47308;-64
2022/08/09 01:34:52;;;;;;;;;7.20;7.00;;;;;23.74;42.22;101768.06;2063680;28;47413;-62
2022/08/09 01:36:07;;;;;;;;;11.80;8.60;;;;;23.73;42.32;101762.72;2063811;28;47686;-64
2022/08/09 01:37:11;;;;;;;;;10.00;9.00;;;;;23.73;42.43;101768.16;2063505;28;47842;-65
2022/08/09 01:38:18;;;;;;;;;5.60;5.60;;;;;23.72;42.48;101764.56;2063435;28;47490;-65
2022/08/09 01:39:20;;;;;;;;;6.80;6.80;;;;;23.71;42.47;101768.25;2063265;28;47817;-65
2022/08/09 01:40:22;;;;;;;;;6.40;6.40;;;;;23.72;42.59;101761.00;2063226;28;47719;-64
2022/08/09 01:41:28;;;;;;;;;6.40;6.00;;;;;23.74;42.64;101761.75;2063500;28;48118;-64
2022/08/09 01:42:31;;;;;;;;;9.00;8.20;;;;;23.70;42.57;101763.78;2063518;28;47402;-64
2022/08/09 01:43:35;;;;;;;;;6.20;6.20;;;;;23.72;42.44;101763.69;2063302;28;48273;-64
2022/08/09 01:44:36;;;;;;;;;6.00;6.00;;;;;23.71;42.49;101761.97;2063334;28;47521;-64
2022/08/09 01:45:38;;;;;;;;;6.40;6.40;;;;;23.70;42.79;101765.63;2063313;28;47396;-65
2022/08/09 01:46:42;;;;;;;;;11.00;11.00;;;;;23.69;42.59;101767.47;2086806;28;47382;-63
2022/08/09 01:47:44;;;;;;;;;8.20;8.20;;;;;23.67;43.03;101769.41;2088215;28;47450;-65
2022/08/09 01:48:47;;;;;;;;;8.00;7.60;;;;;23.66;43.23;101764.09;2079526;28;46318;-64
2022/08/09 01:49:49;;;;;;;;;7.20;7.20;;;;;23.66;42.73;101762.25;2079807;28;47815;-64
2022/08/09 01:50:52;;;;;;;;;5.40;5.40;;;;;23.65;42.51;101768.63;2079645;28;48160;-63
2022/08/09 01:51:58;;;;;;;;;5.40;5.40;;;;;23.63;42.66;101765.16;2079959;28;47878;-65
2022/08/09 01:53:00;;;;;;;;;6.60;6.60;;;;;23.63;42.91;101764.25;2088133;28;47802;-64
2022/08/09 01:54:02;;;;;;;;;8.00;8.00;;;;;23.62;42.86;101759.78;2086936;28;47672;-63
2022/08/09 01:55:05;;;;;;;;;7.40;7.40;;;;;23.60;42.70;101759.00;2080160;28;47331;-65
2022/08/09 01:56:08;;;;;;;;;6.20;6.20;;;;;23.57;43.08;101759.16;2079664;28;47232;-63
2022/08/09 01:57:14;;;;;;;;;8.80;8.80;;;;;23.55;43.21;101758.41;2087974;28;47721;-64
2022/08/09 01:58:15;;;;;;;;;6.60;6.60;;;;;23.53;42.92;101753.06;2087712;28;47631;-64
2022/08/09 01:59:19;;;;;;;;;7.00;7.00;;;;;23.53;43.04;101766.63;2088329;28;47905;-65
2022/08/09 02:00:20;;;;;;;;;7.80;7.80;;;;;23.52;43.20;101761.28;2087661;28;47826;-64
2022/08/09 02:01:21;;;;;;;;;7.75;7.75;;;;;23.51;43.16;101755.00;2087985;28;47554;-64
2022/08/09 02:02:25;;;;;;;;;7.00;7.00;;;;;23.51;43.26;101759.56;2095132;28;47288;-65
2022/08/09 02:03:28;;;;;;;;;7.40;7.40;;;;;23.48;43.38;101764.16;2104686;28;47124;-64
2022/08/09 02:04:31;;;;;;;;;8.80;8.00;;;;;23.48;43.17;101766.88;2099168;28;47653;-64
2022/08/09 02:05:33;;;;;;;;;9.40;7.60;;;;;23.46;43.46;101763.38;2105880;27;47250;-64
2022/08/09 02:08:01;;;;;;;;;7.80;7.80;;;;;23.44;43.45;101762.59;2106004;28;47449;-63
2022/08/09 02:09:01;;;;;;;;;5.80;5.80;;;;;23.43;43.60;101769.00;2105839;27;47210;-63
2022/08/09 02:10:24;;;;;;;;;8.50;7.50;;;;;23.42;43.72;101763.66;2105696;27;47996;-64
2022/08/09 02:11:28;;;;;;;;;7.40;7.40;;;;;23.42;43.54;101761.81;2104935;28;47341;-64
2022/08/09 02:12:32;;;;;;;;;8.00;8.00;;;;;23.39;43.51;101761.16;2105298;28;47288;-63
2022/08/09 02:13:34;;;;;;;;;5.20;5.20;;;;;23.36;43.55;101759.47;2105561;27;47455;-64
2022/08/09 02:14:37;;;;;;;;;7.40;7.40;;;;;23.37;43.52;101763.91;2105379;28;47635;-64
2022/08/09 02:15:42;;;;;;;;;7.80;7.80;;;;;23.37;43.64;101768.47;2104998;28;47547;-64
2022/08/09 02:16:44;;;;;;;;;7.20;7.20;;;;;23.35;44.04;101765.84;2105622;27;47638;-64
2022/08/09 02:17:46;;;;;;;;;8.80;8.80;;;;;23.35;43.61;101764.97;2106082;27;47162;-64
2022/08/09 02:18:47;;;;;;;;;6.60;6.60;;;;;23.33;43.83;101762.34;2106059;27;47686;-64
2022/08/09 02:19:48;;;;;;;;;8.00;8.00;;;;;23.33;43.82;101756.94;2112761;27;47407;-64
2022/08/09 02:21:04;;;;;;;;;6.25;6.25;;;;;23.31;43.80;101761.59;2112938;27;47394;-64
2022/08/09 02:22:37;;;;;;;;;5.40;5.40;;;;;23.30;44.09;101761.69;2105702;27;47784;-65
2022/08/09 02:23:42;;;;;;;;;6.00;6.00;;;;;23.28;44.18;101758.19;2087794;28;48004;-64
2022/08/09 02:24:46;;;;;;;;;6.40;6.40;;;;;23.27;43.90;101759.16;2091556;28;46884;-64
2022/08/09 02:25:51;;;;;;;;;7.20;7.20;;;;;23.28;43.89;101758.19;2082929;28;47240;-64
2022/08/09 02:26:57;;;;;;;;;6.40;6.40;;;;;23.26;44.10;101755.56;2080082;28;47723;-63
2022/08/09 02:28:21;;;;;;;;;7.40;7.40;;;;;23.26;44.40;101761.00;2087966;28;47396;-65
2022/08/09 02:29:26;;;;;;;;;7.80;7.80;;;;;23.26;43.89;101765.53;2065226;28;47584;-64
2022/08/09 02:30:32;;;;;;;;;8.80;7.20;;;;;23.24;44.03;101760.19;2068139;28;47243;-64
2022/08/09 02:31:40;;;;;;;;;6.80;6.60;;;;;23.23;44.12;101761.16;2062933;28;47674;-63
2022/08/09 02:32:44;;;;;;;;;8.80;6.80;;;;;23.22;44.34;101758.53;2063541;28;47677;-64
2022/08/09 02:33:48;;;;;;;;;7.60;6.80;;;;;23.20;44.41;101762.19;2063444;28;45696;-64
2022/08/09 02:34:58;;;;;;;;;7.20;6.00;;;;;23.18;44.49;101756.00;2054997;28;46165;-64
2022/08/09 02:36:01;;;;;;;;;5.60;5.60;;;;;23.18;44.28;101757.84;2056217;28;47125;-66
2022/08/09 02:37:06;;;;;;;;;6.80;6.80;;;;;23.18;44.07;101758.72;2054880;28;47765;-64
2022/08/09 02:38:09;;;;;;;;;8.00;8.00;;;;;23.16;44.59;101760.66;2055739;28;48127;-63
2022/08/09 02:39:17;;;;;;;;;9.00;7.80;;;;;23.15;44.64;101760.72;2063090;28;48320;-64
2022/08/09 02:40:20;;;;;;;;;7.60;7.60;;;;;23.16;44.46;101760.66;2063068;28;47228;-64
2022/08/09 02:41:35;;;;;;;;;8.00;6.20;;;;;23.16;44.34;101754.34;2063050;28;47441;-65
2022/08/09 02:42:42;;;;;;;;;6.80;6.80;;;;;23.15;44.31;101758.03;2063375;28;47732;-64
2022/08/09 02:43:45;;;;;;;;;6.80;6.80;;;;;23.14;44.46;101754.44;2062928;28;47800;-64
2022/08/09 02:44:51;;;;;;;;;5.60;5.60;;;;;23.14;44.42;101759.88;2063310;28;47918;-64
2022/08/09 02:45:52;;;;;;;;;6.20;6.00;;;;;23.14;44.29;101750.88;2062858;28;47808;-64
2022/08/09 02:46:57;;;;;;;;;6.00;6.00;;;;;23.14;44.25;101753.56;2063252;28;47904;-64
2022/08/09 02:48:02;;;;;;;;;7.00;5.80;;;;;23.12;44.33;101753.66;2063129;28;47825;-64
2022/08/09 02:49:06;;;;;;;;;6.80;6.80;;;;;23.12;44.78;101753.66;2062718;28;47769;-65
2022/08/09 02:50:12;;;;;;;;;8.00;7.80;;;;;23.11;44.76;101751.88;2062856;28;47649;-64
2022/08/09 02:51:16;;;;;;;;;6.80;6.80;;;;;23.11;44.48;101751.03;2063184;28;47864;-63
2022/08/09 02:52:17;;;;;;;;;7.40;7.40;;;;;;;;2062913;28;47959;-64
2022/08/09 02:53:25;;;;;;;;;5.00;5.00;;;;;23.06;45.01;101754.00;2063316;28;47948;-64
2022/08/09 02:54:27;;;;;;;;;8.60;7.40;;;;;23.04;44.94;101744.22;2054772;28;47157;-63
2022/08/09 02:55:29;;;;;;;;;8.00;7.80;;;;;23.03;44.91;101753.31;2060539;28;48139;-64
2022/08/09 02:56:31;;;;;;;;;9.40;7.60;;;;;23.00;44.76;101748.97;2068593;28;46251;-63
2022/08/09 02:57:33;;;;;;;;;7.00;6.00;;;;;23.00;45.16;101742.66;2063494;28;47573;-64
2022/08/09 02:58:34;;;;;;;;;8.20;8.20;;;;;22.97;44.92;101742.81;2062883;28;46573;-64
2022/08/09 02:59:38;;;;;;;;;6.60;6.60;;;;;22.95;45.16;101744.75;2068741;28;48057;-63
2022/08/09 03:00:40;;;;;;;;;6.00;6.00;;;;;22.93;45.14;101742.13;2063364;28;47902;-64
2022/08/09 03:01:41;;;;;;;;;8.00;8.00;;;;;22.92;45.04;101750.34;2082841;28;48259;-64
2022/08/09 03:02:46;;;;;;;;;7.40;7.40;;;;;22.90;45.41;101745.03;2087959;28;47651;-64
2022/08/09 03:03:47;;;;;;;;;6.20;6.20;;;;;22.87;45.22;101740.66;2087632;28;47885;-64
2022/08/09 03:04:48;;;;;;;;;5.80;5.80;;;;;22.86;45.31;101748.84;2087490;28;47819;-64
2022/08/09 03:05:50;;;;;;;;;7.60;7.40;;;;;22.86;44.82;101751.53;2087593;28;47551;-64
2022/08/09 03:06:52;;;;;;;;;6.40;6.40;;;;;22.83;45.10;101744.47;2090611;28;47752;-66
2022/08/09 03:07:53;;;;;;;;;8.40;8.40;;;;;22.82;45.37;101744.53;2105569;27;47438;-65
2022/08/09 03:08:56;;;;;;;;;9.00;7.80;;;;;22.80;45.05;101741.06;2105275;27;47202;-63
2022/08/09 03:09:58;;;;;;;;;7.40;7.40;;;;;22.78;45.47;101751.09;2105141;27;47996;-64
2022/08/09 03:11:00;;;;;;;;;5.20;5.20;;;;;22.77;45.28;101752.06;2104814;27;47754;-64
2022/08/09 03:12:01;;;;;;;;;6.20;6.20;;;;;22.77;45.29;101752.94;2113217;27;47219;-64
2022/08/09 03:13:03;;;;;;;;;9.60;9.60;;;;;22.77;45.80;101749.34;2113081;27;47614;-64
2022/08/09 03:14:04;;;;;;;;;7.40;6.40;;;;;22.77;45.40;101752.06;2105158;27;47562;-65
2022/08/09 03:15:07;;;;;;;;;7.00;6.20;;;;;22.76;45.62;101751.19;2105421;27;48158;-64
2022/08/09 03:16:09;;;;;;;;;6.00;6.00;;;;;22.75;45.38;101752.16;2105342;27;48005;-64
2022/08/09 03:17:10;;;;;;;;;7.60;7.60;;;;;22.75;46.02;101751.28;2105128;27;48109;-64
2022/08/09 03:18:12;;;;;;;;;7.80;7.80;;;;;22.74;45.37;101745.00;2104191;28;47282;-65
2022/08/09 03:19:15;;;;;;;;;5.20;5.20;;;;;22.74;45.71;101754.91;2105259;27;47752;-65
2022/08/09 03:20:17;;;;;;;;;5.80;5.80;;;;;22.74;45.92;101754.91;2105560;27;47497;-65
2022/08/09 03:21:19;;;;;;;;;7.40;7.20;;;;;22.73;45.82;101754.03;2104231;28;47386;-64
2022/08/09 03:22:21;;;;;;;;;10.40;10.40;;;;;22.71;45.96;101752.38;2103853;28;47686;-64
2022/08/09 03:23:21;;;;;;;;;8.40;8.00;;;;;22.69;45.91;101743.47;2105605;27;47464;-64
2022/08/09 03:24:22;;;;;;;;;9.50;9.50;;;;;22.66;45.78;101746.38;2104976;27;47274;-65
2022/08/09 03:25:23;;;;;;;;;6.40;6.40;;;;;22.66;45.73;101752.66;2104967;27;47246;-64
2022/08/09 03:26:24;;;;;;;;;7.00;7.00;;;;;22.64;45.77;101751.00;2105296;27;47366;-64
2022/08/09 03:27:26;;;;;;;;;6.00;5.80;;;;;22.63;45.64;101754.66;2104732;28;47409;-64
2022/08/09 03:28:28;;;;;;;;;0.80;0.80;;;;;22.63;46.14;101752.84;2105022;28;47484;-65
2022/08/09 03:29:30;;;;;;;;;6.60;5.40;;;;;22.63;45.85;101757.38;2105084;27;48266;-64
2022/08/09 03:30:31;;;;;;;;;7.40;7.00;;;;;22.63;46.20;101752.84;2104131;28;47764;-64
2022/08/09 03:31:34;;;;;;;;;7.20;6.40;;;;;22.64;46.27;101756.41;2104650;28;48177;-63
2022/08/09 03:32:36;;;;;;;;;8.00;7.00;;;;;22.63;46.07;101754.66;2104933;27;47663;-64
2022/08/09 03:33:37;;;;;;;;;8.80;8.80;;;;;22.63;46.13;101760.06;2105541;27;47823;-64
2022/08/09 03:34:37;;;;;;;;;7.80;6.80;;;;;22.61;46.02;101750.22;2105134;27;47399;-64
2022/08/09 03:35:38;;;;;;;;;6.75;6.75;;;;;22.63;46.15;101762.78;2105354;27;47410;-65
2022/08/09 03:36:39;;;;;;;;;5.80;5.80;;;;;22.63;45.91;101751.97;2105124;27;47918;-64
2022/08/09 03:37:40;;;;;;;;;6.00;6.00;;;;;22.63;46.19;101760.94;2105089;27;47797;-64
2022/08/09 03:38:42;;;;;;;;;8.25;8.25;;;;;22.63;45.98;101758.25;2104968;28;47341;-64
2022/08/09 03:39:44;;;;;;;;;6.80;6.80;;;;;22.63;46.19;101763.66;2105116;27;47788;-64
2022/08/09 03:40:44;;;;;;;;;5.80;5.80;;;;;22.63;46.09;101751.97;2105026;27;47803;-64
2022/08/09 03:41:44;;;;;;;;;6.00;6.00;;;;;22.64;46.09;101761.81;2105477;27;47406;-64
2022/08/09 03:42:45;;;;;;;;;6.25;6.25;;;;;22.63;46.16;101757.38;2104907;27;46642;-64
2022/08/09 03:43:46;;;;;;;;;10.25;9.00;;;;;22.62;46.49;101756.50;2105418;27;47990;-64
2022/08/09 03:44:46;;;;;;;;;7.00;7.00;;;;;22.59;46.46;101752.09;2104571;28;47567;-64
2022/08/09 03:45:47;;;;;;;;;5.75;5.75;;;;;22.59;46.17;101752.09;2104491;28;46976;-64
2022/08/09 03:46:48;;;;;;;;;5.25;5.25;;;;;22.58;46.27;101754.91;2105432;28;47859;-63
2022/08/09 03:47:48;;;;;;;;;8.60;8.60;;;;;22.57;45.90;101753.16;2105233;27;47379;-64
2022/08/09 03:48:52;;;;;;;;;8.00;7.00;;;;;22.57;46.13;101753.16;2104699;27;48010;-65
2022/08/09 03:49:54;;;;;;;;;9.40;8.60;;;;;22.58;46.25;101754.91;2105075;27;47659;-64
2022/08/09 03:50:56;;;;;;;;;6.80;6.80;;;;;22.57;46.33;101761.28;2103550;28;47791;-65
2022/08/09 03:51:59;;;;;;;;;9.40;8.00;;;;;22.57;46.15;101754.03;2104256;28;47510;-65
2022/08/09 03:53:03;;;;;;;;;8.00;7.00;;;;;22.56;46.13;101751.41;2105222;27;48055;-64
2022/08/09 03:54:05;;;;;;;;;6.40;6.40;;;;;22.54;46.44;101748.78;2096927;28;47889;-65
2022/08/09 03:55:08;;;;;;;;;7.00;7.00;;;;;22.55;46.04;101755.94;2101141;28;47645;-65
2022/08/09 03:56:08;;;;;;;;;7.20;6.80;;;;;22.54;46.07;101743.38;2105345;27;47582;-63
2022/08/09 03:57:11;;;;;;;;;7.25;7.25;;;;;22.55;46.69;101753.25;2104869;27;47937;-65
2022/08/09 03:58:12;;;;;;;;;6.80;6.80;;;;;22.55;46.35;101752.38;2112907;27;47230;-64
2022/08/09 03:59:13;;;;;;;;;7.50;7.50;;;;;22.54;46.26;101750.63;2095131;28;47656;-64
2022/08/09 04:00:14;;;;;;;;;9.60;9.60;;;;;22.53;46.50;101749.75;2086998;28;47589;-64
2022/08/09 04:01:15;;;;;;;;;7.50;7.50;;;;;22.51;46.60;101751.69;2097631;28;47794;-64
2022/08/09 04:02:17;;;;;;;;;6.80;6.80;;;;;22.50;46.49;101749.06;2105120;27;47997;-64
2022/08/09 04:03:17;;;;;;;;;7.40;7.40;;;;;22.48;46.67;101756.34;2104993;28;47822;-63
2022/08/09 04:04:19;;;;;;;;;4.75;4.75;;;;;22.47;46.29;101752.78;2104930;27;47386;-64
2022/08/09 04:05:19;;;;;;;;;6.60;6.60;;;;;22.46;46.68;101753.75;2104820;27;47179;-63
2022/08/09 04:06:20;;;;;;;;;6.75;6.75;;;;;22.45;46.70;101743.00;2105110;27;47778;-63
2022/08/09 04:07:20;;;;;;;;;7.50;7.50;;;;;22.44;46.30;101760.19;2105302;27;47889;-64
2022/08/09 04:08:21;;;;;;;;;7.00;5.75;;;;;22.44;46.58;101749.38;2104261;28;47196;-64
2022/08/09 04:09:21;;;;;;;;;9.00;9.00;;;;;22.43;46.47;101755.75;2104710;28;47720;-64
2022/08/09 04:10:22;;;;;;;;;7.25;6.75;;;;;22.44;46.86;101744.84;2104874;28;47665;-64
2022/08/09 04:11:23;;;;;;;;;8.20;8.20;;;;;22.44;46.86;101747.53;2104693;27;47920;-65
2022/08/09 04:12:42;;;;;;;;;10.50;9.00;;;;;22.44;46.48;101755.66;2105796;27;45210;-65
2022/08/09 04:13:42;;;;;;;;;9.00;7.20;;;;;22.42;46.48;101764.81;2105186;27;47530;-65
2022/08/09 04:14:42;;;;;;;;;7.25;7.25;;;;;22.40;46.70;101759.50;2104967;27;46992;-65
2022/08/09 04:15:45;;;;;;;;;9.00;9.00;;;;;22.39;46.47;101756.88;2105042;27;48023;-64
2022/08/09 04:16:46;;;;;;;;;9.60;9.60;;;;;22.38;46.45;101753.31;2104743;27;48255;-64
2022/08/09 04:17:46;;;;;;;;;7.75;7.75;;;;;22.39;46.67;101765.88;2104833;27;47107;-64
2022/08/09 04:18:47;;;;;;;;;10.75;9.00;;;;;22.40;46.43;101761.34;2105066;27;47720;-64
2022/08/09 04:19:47;;;;;;;;;7.00;7.00;;;;;22.40;46.88;101762.22;2104564;27;47591;-64
2022/08/09 04:20:49;;;;;;;;;10.25;10.25;;;;;22.40;46.41;101766.75;2104967;27;47459;-64
2022/08/09 04:21:50;;;;;;;;;7.80;7.80;;;;;22.40;46.90;101766.75;2104906;27;47542;-64
2022/08/09 04:22:50;;;;;;;;;9.00;8.75;;;;;22.38;46.46;101765.97;2104734;27;47471;-64
2022/08/09 04:23:50;;;;;;;;;11.00;11.00;;;;;22.38;46.57;101771.38;2105105;27;47361;-64
2022/08/09 04:24:51;;;;;;;;;9.00;9.00;;;;;22.36;47.10;101766.03;2104808;27;47743;-64
2022/08/09 04:25:52;;;;;;;;;7.25;7.25;;;;;22.36;47.14;101774.16;2104256;28;47529;-63
2022/08/09 04:26:53;;;;;;;;;8.80;7.40;;;;;22.35;46.97;101772.38;2104277;28;47611;-65
2022/08/09 04:27:55;;;;;;;;;9.25;9.25;;;;;22.34;47.19;101770.63;2105156;27;47554;-63
2022/08/09 04:28:56;;;;;;;;;6.40;6.40;;;;;22.31;46.79;101763.56;2105115;27;47607;-64
2022/08/09 04:29:57;;;;;;;;;6.75;6.75;;;;;22.29;46.95;101767.31;2104160;28;47546;-64
2022/08/09 04:30:57;;;;;;;;;7.80;7.80;;;;;22.27;47.34;101763.84;2095649;28;47663;-64
2022/08/09 04:31:58;;;;;;;;;8.25;7.75;;;;;22.26;46.56;101767.50;2104289;28;45515;-62
2022/08/09 04:32:59;;;;;;;;;8.00;8.00;;;;;22.24;46.97;101761.31;2104788;27;47483;-63
2022/08/09 04:33:59;;;;;;;;;9.50;7.75;;;;;22.26;47.11;101765.66;2104768;27;47194;-64
2022/08/09 04:35:00;;;;;;;;;10.00;8.00;;;;;22.25;46.81;101766.63;2106303;27;47604;-65
2022/08/09 04:36:00;;;;;;;;;7.00;7.00;;;;;22.27;47.12;101774.66;2106484;27;47141;-66
2022/08/09 04:37:01;;;;;;;;;7.50;7.50;;;;;22.26;46.82;101775.59;2106134;27;46698;-64
2022/08/09 04:38:02;;;;;;;;;7.25;7.25;;;;;22.26;47.44;101779.19;2106624;27;47725;-63
2022/08/09 04:39:07;;;;;;;;;7.00;7.00;;;;;22.26;47.23;101776.47;2106517;27;47994;-66
2022/08/09 04:40:09;;;;;;;;;6.60;6.20;;;;;22.25;47.27;101779.28;2106510;27;47595;-64
2022/08/09 04:41:09;;;;;;;;;6.00;5.40;;;;;22.23;47.13;101776.66;2106374;27;47892;-64
2022/08/09 04:42:10;;;;;;;;;8.25;7.00;;;;;22.22;46.78;101782.97;2106021;27;47483;-64
2022/08/09 04:43:10;;;;;;;;;6.75;6.75;;;;;22.21;47.58;101777.66;2106047;27;48096;-64
2022/08/09 04:44:11;;;;;;;;;7.00;6.50;;;;;22.19;47.60;101780.44;2106362;27;47442;-64
2022/08/09 04:45:11;;;;;;;;;7.00;7.00;;;;;22.18;47.03;101780.53;2106311;27;47471;-63
2022/08/09 04:46:12;;;;;;;;;10.00;9.75;;;;;22.17;47.44;101781.50;2106357;27;47977;-65
2022/08/09 04:47:12;;;;;;;;;8.75;8.50;;;;;22.16;47.59;101779.75;2106237;27;47696;-65
2022/08/09 04:48:12;;;;;;;;;7.25;7.00;;;;;22.15;47.03;101781.59;2106303;27;47481;-64
2022/08/09 04:49:13;;;;;;;;;9.25;9.25;;;;;22.14;47.19;101773.56;2106172;27;47167;-64
2022/08/09 04:50:13;;;;;;;;;8.00;7.00;;;;;22.13;47.18;101782.63;2106265;27;46198;-63
2022/08/09 04:51:14;;;;;;;;;7.50;7.50;;;;;22.12;47.42;101783.59;2106325;27;47797;-64
2022/08/09 04:52:14;;;;;;;;;6.75;6.25;;;;;22.13;47.85;101778.09;2106558;27;47219;-64
2022/08/09 04:53:14;;;;;;;;;8.00;7.25;;;;;22.12;47.11;101778.19;2112840;27;47526;-64
2022/08/09 04:54:15;;;;;;;;;7.25;7.00;;;;;22.12;47.94;101770.06;2097298;28;47157;-64
2022/08/09 04:55:15;;;;;;;;;6.75;6.75;;;;;22.12;47.69;101779.06;2096713;28;47421;-64